Time;durP1;ratioP1;P1;durP2;ratioP2;P2;SDS_P1;SDS_P2;PMS_P1;PMS_P2;Temp;Humidity;BMP_temperature;BMP_pressure;BME280_temperature;BME280_humidity;BME280_pressure;Samples;Min_cycle;Max_cycle;Signal;HPM_P1;HPM_P2
2024/01/14 00:02:17;;;;;;;17.20;13.20;;;18.70;86.30;;;;;;5045944;28;20049;-64
2024/01/14 00:04:44;;;;;;;16.58;12.45;;;18.50;87.90;;;;;;5012957;28;20045;-63
2024/01/14 00:07:10;;;;;;;17.45;12.77;;;18.50;88.00;;;;;;5045627;28;20054;-63
2024/01/14 00:09:36;;;;;;;16.42;11.07;;;18.20;84.50;;;;;;5013078;28;20106;-63
2024/01/14 00:12:04;;;;;;;16.80;11.27;;;18.30;88.00;;;;;;5012899;28;20472;-63
2024/01/14 00:14:30;;;;;;;13.82;10.20;;;18.30;87.90;;;;;;5013089;28;20069;-63
2024/01/14 00:16:56;;;;;;;15.38;10.18;;;18.40;87.90;;;;;;5013881;28;20467;-64
2024/01/14 00:19:21;;;;;;;14.80;9.85;;;18.40;87.60;;;;;;5012689;28;20392;-63
2024/01/14 00:21:47;;;;;;;14.75;9.80;;;18.50;87.60;;;;;;5013795;28;20046;-64
2024/01/14 00:24:13;;;;;;;13.80;9.02;;;;;;;;;;5045774;28;20049;-63
2024/01/14 00:26:39;;;;;;;14.85;9.55;;;18.40;87.40;;;;;;5045796;28;20046;-64
2024/01/14 00:29:05;;;;;;;13.45;9.10;;;18.40;87.40;;;;;;5011933;28;20049;-64
2024/01/14 00:31:31;;;;;;;13.82;8.02;;;18.30;87.50;;;;;;5013524;28;20042;-64
2024/01/14 00:33:57;;;;;;;14.63;8.35;;;;;;;;;;5013114;28;20050;-68
2024/01/14 00:36:23;;;;;;;12.85;7.80;;;18.20;87.80;;;;;;5013016;28;20045;-63
2024/01/14 00:38:49;;;;;;;12.40;7.82;;;18.00;84.60;;;;;;5013398;28;20405;-63
2024/01/14 00:41:15;;;;;;;13.10;7.18;;;18.00;88.00;;;;;;5013548;28;20046;-64
2024/01/14 00:43:41;;;;;;;10.60;6.90;;;17.90;88.10;;;;;;5012746;28;20042;-64
2024/01/14 00:46:07;;;;;;;11.50;7.05;;;17.90;88.30;;;;;;5013546;28;20499;-64
2024/01/14 00:48:33;;;;;;;11.13;6.80;;;17.80;88.40;;;;;;5012725;28;20056;-63
2024/01/14 00:50:59;;;;;;;11.20;6.38;;;17.70;88.50;;;;;;5012189;28;20061;-63
2024/01/14 00:53:25;;;;;;;12.00;6.75;;;;;;;;;;5012116;28;20440;-64
2024/01/14 00:55:51;;;;;;;12.55;6.65;;;17.60;88.70;;;;;;5010796;28;20400;-64
2024/01/14 00:58:17;;;;;;;10.10;6.05;;;17.50;88.80;;;;;;5013167;28;20045;-64
2024/01/14 01:00:42;;;;;;;13.25;6.43;;;17.40;88.90;;;;;;5012636;28;20499;-63
2024/01/14 01:03:08;;;;;;;10.45;5.70;;;17.40;89.00;;;;;;5043809;28;20112;-64
2024/01/14 01:05:35;;;;;;;11.07;5.78;;;;;;;;;;5026567;28;20075;-64
2024/01/14 01:08:01;;;;;;;11.27;5.78;;;17.40;88.40;;;;;;5012865;28;20068;-64
2024/01/14 01:10:27;;;;;;;9.68;5.53;;;17.20;89.40;;;;;;5011894;28;20046;-64
2024/01/14 01:12:53;;;;;;;11.77;5.75;;;17.20;89.60;;;;;;5012829;28;20057;-63
2024/01/14 01:15:19;;;;;;;8.95;5.05;;;17.00;89.60;;;;;;5012583;28;20044;-63
2024/01/14 01:17:45;;;;;;;9.80;5.35;;;;;;;;;;5012481;28;20034;-63
2024/01/14 01:20:11;;;;;;;10.27;4.97;;;16.90;89.80;;;;;;5012900;28;20411;-64
2024/01/14 01:22:37;;;;;;;10.82;5.63;;;16.90;90.00;;;;;;5045093;28;20050;-63
2024/01/14 01:25:03;;;;;;;9.85;5.20;;;16.90;90.10;;;;;;5012755;28;20492;-63
2024/01/14 01:27:29;;;;;;;9.43;4.68;;;16.70;90.10;;;;;;5044153;28;20048;-63
2024/01/14 01:29:56;;;;;;;8.43;4.75;;;16.70;90.20;;;;;;5012641;28;20050;-64
2024/01/14 01:32:22;;;;;;;8.85;4.55;;;;;;;;;;5012984;28;20077;-64
2024/01/14 01:34:48;;;;;;;11.02;4.72;;;16.50;90.30;;;;;;5012506;28;20057;-64
2024/01/14 01:37:14;;;;;;;9.90;4.50;;;16.50;90.40;;;;;;5012858;28;20111;-64
2024/01/14 01:39:40;;;;;;;8.98;4.57;;;16.40;90.40;;;;;;5009946;28;20085;-64
2024/01/14 01:42:06;;;;;;;8.35;4.30;;;16.40;90.40;;;;;;5011496;28;20046;-66
2024/01/14 01:44:33;;;;;;;7.63;4.00;;;;;;;;;;5012718;28;20046;-64
2024/01/14 01:46:59;;;;;;;8.38;3.97;;;;;;;;;;5012268;28;20065;-64
2024/01/14 01:49:26;;;;;;;8.55;3.85;;;;;;;;;;5012514;28;20050;-64
2024/01/14 01:51:52;;;;;;;8.57;4.07;;;;;;;;;;5010896;28;20451;-64
2024/01/14 01:54:19;;;;;;;8.50;3.60;;;;;;;;;;5012234;28;20046;-71
2024/01/14 01:56:45;;;;;;;9.07;3.78;;;15.80;90.60;;;;;;5012748;28;20104;-64
2024/01/14 01:59:11;;;;;;;9.43;4.05;;;15.80;90.70;;;;;;5010847;28;20523;-64
2024/01/14 02:01:38;;;;;;;8.85;3.97;;;;;;;;;;5010547;28;20176;-64
2024/01/14 02:04:04;;;;;;;8.00;3.75;;;15.70;90.80;;;;;;5011385;28;20045;-64
2024/01/14 02:06:30;;;;;;;7.22;3.47;;;15.70;90.80;;;;;;5026555;28;20404;-64
2024/01/14 02:08:56;;;;;;;9.00;3.70;;;15.50;89.80;;;;;;5016310;28;20124;-65
2024/01/14 02:11:22;;;;;;;9.85;3.38;;;15.70;90.10;;;;;;5048187;28;20045;-67
2024/01/14 02:13:48;;;;;;;9.23;3.83;;;;;;;;;;5015508;28;20053;-67
2024/01/14 02:16:15;;;;;;;10.25;3.35;;;15.40;91.00;;;;;;5015610;28;20122;-65
2024/01/14 02:18:41;;;;;;;8.10;3.20;;;15.60;91.10;;;;;;5046408;28;20447;-66
2024/01/14 02:21:07;;;;;;;9.10;3.53;;;;;;;;;;5016109;28;20104;-65
2024/01/14 02:23:35;;;;;;;7.85;3.22;;;15.20;90.00;;;;;;5047684;28;20074;-66
2024/01/14 02:26:01;;;;;;;9.45;3.33;;;15.30;91.20;;;;;;5015036;28;20111;-65
2024/01/14 02:28:26;;;;;;;8.48;3.20;;;15.30;91.20;;;;;;5031110;28;20038;-66
2024/01/14 02:30:53;;;;;;;8.73;3.00;;;15.30;91.30;;;;;;5014434;28;20480;-65
2024/01/14 02:33:19;;;;;;;7.93;2.95;;;;;;;;;;5047645;28;20046;-65
2024/01/14 02:35:45;;;;;;;7.43;2.78;;;15.30;91.40;;;;;;5016273;28;20045;-66
2024/01/14 02:38:10;;;;;;;7.35;2.90;;;15.10;91.40;;;;;;5015285;28;20407;-66
2024/01/14 02:40:36;;;;;;;7.50;3.00;;;15.00;91.40;;;;;;5047776;28;20450;-64
2024/01/14 02:43:02;;;;;;;7.97;3.00;;;15.00;91.50;;;;;;5015740;28;20052;-65
2024/01/14 02:45:31;;;;;;;8.10;3.15;;;15.20;89.80;;;;;;5015922;28;20400;-65
2024/01/14 02:47:57;;;;;;;7.50;2.83;;;15.00;91.60;;;;;;5047246;28;20054;-65
2024/01/14 02:50:23;;;;;;;8.20;3.13;;;15.00;91.60;;;;;;5014625;28;20408;-64
2024/01/14 02:52:48;;;;;;;7.70;2.92;;;14.90;91.60;;;;;;5013082;28;20046;-65
2024/01/14 02:55:15;;;;;;;6.60;2.90;;;;;;;;;;4997704;28;20049;-64
2024/01/14 02:57:41;;;;;;;7.45;2.70;;;;;;;;;;5015398;28;20050;-64
2024/01/14 03:00:08;;;;;;;9.63;3.28;;;14.80;91.70;;;;;;5014309;28;20060;-65
2024/01/14 03:02:34;;;;;;;6.72;2.33;;;14.80;91.80;;;;;;4997593;28;20432;-65
2024/01/14 03:05:00;;;;;;;9.55;3.00;;;;;;;;;;5030452;28;20046;-65
2024/01/14 03:07:26;;;;;;;7.43;2.88;;;;;;;;;;5047279;28;20050;-65
2024/01/14 03:09:52;;;;;;;9.07;2.95;;;14.60;91.90;;;;;;5014130;28;20412;-64
2024/01/14 03:12:18;;;;;;;8.88;3.00;;;;;;;;;;5029007;28;20037;-64
2024/01/14 03:14:43;;;;;;;7.65;2.65;;;14.60;91.90;;;;;;5013216;28;20407;-65
2024/01/14 03:17:09;;;;;;;8.80;2.83;;;14.60;92.00;;;;;;5015322;28;20046;-65
2024/01/14 03:19:35;;;;;;;8.23;2.72;;;;;;;;;;5012587;28;20096;-64
2024/01/14 03:22:01;;;;;;;7.75;2.97;;;14.40;92.00;;;;;;5013611;28;20068;-64
2024/01/14 03:24:27;;;;;;;8.05;2.70;;;14.60;92.00;;;;;;5046272;28;20050;-64
2024/01/14 03:26:53;;;;;;;7.38;2.50;;;14.50;92.00;;;;;;5045967;28;20049;-65
2024/01/14 03:29:19;;;;;;;7.03;2.80;;;14.50;92.10;;;;;;5029935;28;20060;-65
2024/01/14 03:31:45;;;;;;;7.93;2.50;;;14.30;92.10;;;;;;5014797;28;20401;-64
2024/01/14 03:34:11;;;;;;;9.30;2.67;;;;;;;;;;5001899;28;20058;-64
2024/01/14 03:36:36;;;;;;;7.97;2.53;;;14.40;92.20;;;;;;4995554;28;20449;-65
2024/01/14 03:39:03;;;;;;;7.50;3.08;;;14.30;92.20;;;;;;4993885;28;20085;-64
2024/01/14 03:41:30;;;;;;;7.75;2.75;;;14.20;92.20;;;;;;4999242;28;20057;-65
2024/01/14 03:43:56;;;;;;;7.72;2.75;;;14.30;92.20;;;;;;5028855;28;20058;-65
2024/01/14 03:46:22;;;;;;;7.43;2.70;;;14.30;91.70;;;;;;5012924;28;20049;-64
2024/01/14 03:48:48;;;;;;;6.43;2.60;;;;;;;;;;5045991;28;20570;-64
2024/01/14 03:51:14;;;;;;;8.48;3.05;;;14.10;92.30;;;;;;5046018;28;20129;-66
2024/01/14 03:53:40;;;;;;;11.00;2.88;;;14.20;92.30;;;;;;5012578;28;20249;-64
2024/01/14 03:56:06;;;;;;;7.57;2.65;;;14.10;92.30;;;;;;5012887;28;20053;-64
2024/01/14 03:58:32;;;;;;;5.63;2.35;;;;;;;;;;5029615;28;20597;-64
2024/01/14 04:00:57;;;;;;;10.38;2.80;;;14.10;92.30;;;;;;5012789;28;20052;-65
2024/01/14 04:03:24;;;;;;;7.60;3.00;;;;;;;;;;5014122;28;20045;-68
2024/01/14 04:05:49;;;;;;;8.90;2.97;;;14.10;92.40;;;;;;5014234;28;20052;-64
2024/01/14 04:08:15;;;;;;;8.68;2.60;;;14.00;92.40;;;;;;5013173;28;20057;-65
2024/01/14 04:10:41;;;;;;;7.18;2.50;;;14.00;92.30;;;;;;5013774;28;20415;-64
2024/01/14 04:13:07;;;;;;;8.23;2.42;;;14.00;92.30;;;;;;5013876;28;20461;-64
2024/01/14 04:15:33;;;;;;;7.18;2.47;;;;;;;;;;5013074;28;20045;-64
2024/01/14 04:17:59;;;;;;;7.82;2.70;;;;;;;;;;5012680;28;20078;-64
2024/01/14 04:20:25;;;;;;;7.38;2.35;;;14.00;92.40;;;;;;5045662;28;20056;-65
2024/01/14 04:22:51;;;;;;;9.10;2.40;;;;;;;;;;5012154;28;20050;-64
2024/01/14 04:25:17;;;;;;;10.10;2.85;;;13.90;92.40;;;;;;5045846;28;20484;-65
2024/01/14 04:27:43;;;;;;;8.13;3.00;;;;;;;;;;5013886;28;20053;-64
2024/01/14 04:30:10;;;;;;;7.82;2.72;;;13.80;92.40;;;;;;5013441;28;20088;-65
2024/01/14 04:32:36;;;;;;;8.98;2.63;;;13.80;92.30;;;;;;5042639;28;20377;-65
2024/01/14 04:35:02;;;;;;;8.75;2.88;;;13.90;92.40;;;;;;5029033;28;20044;-65
2024/01/14 04:37:27;;;;;;;8.95;2.60;;;13.80;92.40;;;;;;5012340;28;20081;-64
2024/01/14 04:39:55;;;;;;;10.07;2.80;;;;;;;;;;5011400;28;20042;-65
2024/01/14 04:42:22;;;;;;;9.57;2.67;;;13.90;92.40;;;;;;5011015;28;20500;-65
2024/01/14 04:44:48;;;;;;;9.10;2.72;;;;;;;;;;5025676;28;20058;-65
2024/01/14 04:47:14;;;;;;;8.18;2.47;;;;;;;;;;5001202;28;20057;-65
2024/01/14 04:49:40;;;;;;;10.43;2.80;;;13.90;92.40;;;;;;5013572;28;20077;-65
2024/01/14 04:52:05;;;;;;;9.15;2.70;;;13.60;92.30;;;;;;5013194;28;20088;-65
2024/01/14 04:54:31;;;;;;;7.22;2.25;;;;;;;;;;5035397;28;20044;-66
2024/01/14 04:56:57;;;;;;;9.52;2.80;;;;;;;;;;4992446;28;20432;-65
2024/01/14 04:59:24;;;;;;;9.48;3.00;;;;;;;;;;5025365;28;20042;-65
2024/01/14 05:01:50;;;;;;;8.57;2.13;;;;;;;;;;5038681;28;20050;-65
2024/01/14 05:04:15;;;;;;;8.07;2.78;;;13.70;92.60;;;;;;4995834;28;20500;-65
2024/01/14 05:06:42;;;;;;;11.13;2.75;;;;;;;;;;5044710;28;20046;-65
2024/01/14 05:09:08;;;;;;;7.18;2.42;;;;;;;;;;5045190;28;20373;-65
2024/01/14 05:11:34;;;;;;;9.98;2.60;;;13.70;92.60;;;;;;5027120;28;20045;-66
2024/01/14 05:13:59;;;;;;;7.60;2.55;;;13.60;92.60;;;;;;4979597;28;20050;-65
2024/01/14 05:16:25;;;;;;;9.18;3.08;;;13.50;92.20;;;;;;4979328;28;20049;-66
2024/01/14 05:18:51;;;;;;;8.05;2.47;;;13.60;92.60;;;;;;5011896;28;20041;-65
2024/01/14 05:21:17;;;;;;;8.43;2.60;;;13.60;92.60;;;;;;5007755;28;20400;-65
2024/01/14 05:23:43;;;;;;;8.57;2.60;;;13.60;92.60;;;;;;5021584;28;20053;-66
2024/01/14 05:26:10;;;;;;;7.80;2.30;;;;;;;;;;5011795;28;20044;-65
2024/01/14 05:28:35;;;;;;;7.97;2.55;;;13.60;92.60;;;;;;5008147;28;20060;-66
2024/01/14 05:31:03;;;;;;;7.68;2.30;;;;;;;;;;5037567;28;20054;-70
2024/01/14 05:33:29;;;;;;;9.00;2.67;;;;;;;;;;4995110;28;20057;-65
2024/01/14 05:35:55;;;;;;;8.90;2.53;;;13.50;92.70;;;;;;5028520;28;20341;-65
2024/01/14 05:38:20;;;;;;;8.00;2.40;;;13.50;92.70;;;;;;4995253;28;20058;-65
2024/01/14 05:40:46;;;;;;;8.48;2.30;;;13.40;92.60;;;;;;5012705;28;20054;-64
2024/01/14 05:43:12;;;;;;;8.23;2.50;;;13.30;92.50;;;;;;5011791;28;20152;-64
2024/01/14 05:45:39;;;;;;;5.38;2.30;;;13.30;92.60;;;;;;5048296;28;20038;-65
2024/01/14 05:48:06;;;;;;;9.45;2.55;;;13.30;92.60;;;;;;5031586;28;20054;-65
2024/01/14 05:50:31;;;;;;;7.55;2.22;;;13.30;91.50;;;;;;5048665;28;20413;-64
2024/01/14 05:52:57;;;;;;;8.57;2.88;;;13.40;92.60;;;;;;5014903;28;20054;-64
2024/01/14 05:55:23;;;;;;;7.72;2.58;;;13.30;92.60;;;;;;5015362;28;20045;-64
2024/01/14 05:57:49;;;;;;;7.85;2.30;;;;;;;;;;5031300;28;20042;-71
2024/01/14 06:00:15;;;;;;;8.65;2.20;;;13.30;92.60;;;;;;4983278;28;20046;-64
2024/01/14 06:02:41;;;;;;;7.15;2.28;;;;;;;;;;5046496;28;20046;-65
2024/01/14 06:05:07;;;;;;;6.68;2.53;;;13.40;92.50;;;;;;5015248;28;20053;-65
2024/01/14 06:07:33;;;;;;;8.35;2.70;;;13.40;92.60;;;;;;5031137;28;20049;-64
2024/01/14 06:09:59;;;;;;;8.27;2.40;;;13.30;92.60;;;;;;5031825;28;20103;-64
2024/01/14 06:12:25;;;;;;;7.18;2.25;;;;;;;;;;5016385;28;20438;-68
2024/01/14 06:14:51;;;;;;;7.10;2.15;;;13.20;92.60;;;;;;5014388;28;20049;-64
2024/01/14 06:17:16;;;;;;;8.57;2.38;;;13.30;92.60;;;;;;5047742;28;20050;-64
2024/01/14 06:19:43;;;;;;;9.55;2.28;;;;;;;;;;4998236;28;20060;-64
2024/01/14 06:22:09;;;;;;;8.73;2.45;;;;;;;;;;5015352;28;20045;-64
2024/01/14 06:24:35;;;;;;;5.70;2.10;;;;;;;;;;5031179;28;20395;-64
2024/01/14 06:27:02;;;;;;;7.65;2.10;;;;;;;;;;5014497;28;20046;-65
2024/01/14 06:29:29;;;;;;;8.90;2.50;;;;;;;;;;5013692;28;20385;-64
2024/01/14 06:31:58;;;;;;;6.70;1.83;;;;;;;;;;5012985;28;20042;-65
2024/01/14 06:34:24;;;;;;;8.60;2.22;;;;;;;;;;5029926;28;20136;-64
2024/01/14 06:36:50;;;;;;;9.43;2.47;;;13.30;92.60;;;;;;5014409;28;20050;-65
2024/01/14 06:39:16;;;;;;;7.85;2.40;;;13.10;92.60;;;;;;5015854;28;20099;-65
2024/01/14 06:41:42;;;;;;;8.73;2.40;;;13.20;92.60;;;;;;5015989;28;20053;-64
2024/01/14 06:44:08;;;;;;;7.30;2.28;;;;;;;;;;5046646;28;20500;-64
2024/01/14 06:46:34;;;;;;;10.55;2.40;;;;;;;;;;5014440;28;20046;-64
2024/01/14 06:49:00;;;;;;;8.35;2.03;;;;;;;;;;5015121;28;20110;-64
2024/01/14 06:51:26;;;;;;;6.20;1.90;;;13.00;92.50;;;;;;5047540;28;20053;-65
2024/01/14 06:53:52;;;;;;;7.93;2.25;;;13.10;92.50;;;;;;5013388;28;20129;-64
2024/01/14 06:56:18;;;;;;;8.90;2.33;;;13.00;92.60;;;;;;5015310;28;20544;-64
2024/01/14 06:58:44;;;;;;;8.20;2.20;;;;;;;;;;5015313;28;20049;-65
2024/01/14 07:01:10;;;;;;;6.38;2.30;;;13.00;92.60;;;;;;5015474;28;20089;-64
2024/01/14 07:03:36;;;;;;;7.28;2.10;;;13.10;92.60;;;;;;5014711;28;20096;-65
2024/01/14 07:06:02;;;;;;;7.00;2.10;;;13.00;92.60;;;;;;5038879;28;20043;-64
2024/01/14 07:08:28;;;;;;;7.28;2.55;;;13.00;92.60;;;;;;5012497;28;20562;-64
2024/01/14 07:10:54;;;;;;;8.07;2.65;;;12.90;92.60;;;;;;5047142;28;20046;-64
2024/01/14 07:13:20;;;;;;;7.75;2.30;;;;;;;;;;5046251;28;20250;-65
2024/01/14 07:15:46;;;;;;;8.45;2.35;;;;;;;;;;5015047;28;20049;-65
2024/01/14 07:18:12;;;;;;;7.82;2.13;;;13.00;92.60;;;;;;5046990;28;20073;-65
2024/01/14 07:20:41;;;;;;;9.23;2.53;;;13.00;92.60;;;;;;5015042;28;20064;-64
2024/01/14 07:23:06;;;;;;;6.95;2.20;;;13.10;92.60;;;;;;5015295;28;20054;-65
2024/01/14 07:25:32;;;;;;;8.73;2.50;;;13.10;92.60;;;;;;5029723;28;20042;-64
2024/01/14 07:27:58;;;;;;;10.25;2.25;;;12.90;91.20;;;;;;5013713;28;20485;-66
2024/01/14 07:30:24;;;;;;;7.45;2.00;;;12.90;91.60;;;;;;5013186;28;20081;-67
2024/01/14 07:32:49;;;;;;;10.18;2.40;;;12.90;92.50;;;;;;5045927;28;20435;-65
2024/01/14 07:35:16;;;;;;;5.57;1.73;;;;;;;;;;5046707;28;20407;-64
2024/01/14 07:37:42;;;;;;;9.02;2.50;;;12.80;92.50;;;;;;5030264;28;20207;-65
2024/01/14 07:40:08;;;;;;;9.63;2.67;;;12.80;92.10;;;;;;5044160;28;20133;-65
2024/01/14 07:42:33;;;;;;;7.75;2.20;;;12.80;92.50;;;;;;5012803;28;20046;-65
2024/01/14 07:44:59;;;;;;;7.78;2.20;;;12.90;92.50;;;;;;5014383;28;20045;-65
2024/01/14 07:47:25;;;;;;;8.40;2.42;;;12.70;92.50;;;;;;5014286;28;20056;-65
2024/01/14 07:49:51;;;;;;;5.68;1.90;;;;;;;;;;5013082;28;20088;-65
2024/01/14 07:52:17;;;;;;;5.90;2.05;;;12.80;92.50;;;;;;5014081;28;20038;-65
2024/01/14 07:54:44;;;;;;;6.00;2.10;;;;;;;;;;5046450;28;20038;-64
2024/01/14 07:57:10;;;;;;;10.48;2.60;;;12.80;92.50;;;;;;5014550;28;20042;-64
2024/01/14 07:59:35;;;;;;;6.72;2.25;;;12.90;92.50;;;;;;5012629;28;20060;-65
2024/01/14 08:02:02;;;;;;;7.90;2.08;;;;;;;;;;5013954;28;20061;-65
2024/01/14 08:04:28;;;;;;;5.53;2.25;;;;;;;;;;5013770;28;20416;-65
2024/01/14 08:06:54;;;;;;;7.45;2.05;;;12.90;92.60;;;;;;5014220;28;20045;-65
2024/01/14 08:09:20;;;;;;;8.18;2.22;;;;;;;;;;5013345;28;20072;-65
2024/01/14 08:11:46;;;;;;;6.60;2.20;;;12.90;92.50;;;;;;5009025;28;20046;-64
2024/01/14 08:14:13;;;;;;;7.53;2.13;;;;;;;;;;5026696;28;20047;-65
2024/01/14 08:16:39;;;;;;;7.43;2.30;;;12.80;92.60;;;;;;5004735;28;20085;-65
2024/01/14 08:19:10;;;;;;;8.10;2.30;;;12.80;92.60;;;;;;5013543;28;20534;-65
2024/01/14 08:21:36;;;;;;;7.95;2.13;;;12.80;92.60;;;;;;5013317;28;20038;-64
2024/01/14 08:24:03;;;;;;;7.50;2.50;;;;;;;;;;5012606;28;20196;-65
2024/01/14 08:26:29;;;;;;;8.95;2.30;;;13.00;92.50;;;;;;5028402;28;20128;-74
2024/01/14 08:28:55;;;;;;;8.25;2.20;;;12.90;91.00;;;;;;5045456;28;20180;-65
2024/01/14 08:31:21;;;;;;;5.65;2.20;;;12.90;92.50;;;;;;5013958;28;20045;-65
2024/01/14 08:33:47;;;;;;;8.18;2.38;;;12.80;92.50;;;;;;5013717;28;20484;-64
2024/01/14 08:36:13;;;;;;;8.10;2.13;;;12.90;91.40;;;;;;5013728;28;20042;-66
2024/01/14 08:38:40;;;;;;;9.88;2.45;;;12.90;92.50;;;;;;5013693;28;20060;-65
2024/01/14 08:41:06;;;;;;;7.65;2.53;;;12.90;92.40;;;;;;5011336;28;20077;-65
2024/01/14 08:43:32;;;;;;;6.40;1.70;;;;;;;;;;5045603;28;20128;-64
2024/01/14 08:45:58;;;;;;;6.10;2.28;;;13.00;92.50;;;;;;5011637;28;20076;-64
2024/01/14 08:48:24;;;;;;;8.13;2.55;;;;;;;;;;4995857;28;20089;-65
2024/01/14 08:50:53;;;;;;;7.30;2.22;;;12.90;92.40;;;;;;5011422;28;20472;-64
2024/01/14 08:53:19;;;;;;;7.47;2.40;;;;;;;;;;5013271;28;20049;-64
2024/01/14 08:55:45;;;;;;;8.90;2.38;;;12.80;92.40;;;;;;5013105;28;20042;-64
2024/01/14 08:58:11;;;;;;;7.80;2.15;;;12.90;92.40;;;;;;5044550;28;20129;-63
2024/01/14 09:00:37;;;;;;;6.82;2.25;;;12.80;92.40;;;;;;5011492;28;20124;-63
2024/01/14 09:03:04;;;;;;;8.15;2.35;;;;;;;;;;5012038;28;20038;-63
2024/01/14 09:05:30;;;;;;;9.05;2.38;;;12.90;92.00;;;;;;5027997;28;20054;-64
2024/01/14 09:07:55;;;;;;;7.25;2.28;;;12.90;92.40;;;;;;5026617;28;20045;-65
2024/01/14 09:10:21;;;;;;;7.22;2.40;;;13.10;92.40;;;;;;5012902;28;20084;-64
2024/01/14 09:12:48;;;;;;;6.70;1.98;;;;;;;;;;5011720;28;20364;-71
2024/01/14 09:15:13;;;;;;;9.18;2.53;;;13.00;92.30;;;;;;5011703;28;20125;-69
2024/01/14 09:17:40;;;;;;;7.10;2.13;;;;;;;;;;5025915;28;20141;-65
2024/01/14 09:20:07;;;;;;;7.22;2.25;;;13.10;92.30;;;;;;5011618;28;20060;-64
2024/01/14 09:22:33;;;;;;;8.18;2.20;;;13.10;92.40;;;;;;5011915;28;20469;-64
2024/01/14 09:24:59;;;;;;;7.60;2.47;;;13.00;92.20;;;;;;5009358;28;20073;-64
2024/01/14 09:27:27;;;;;;;7.55;2.33;;;;;;;;;;5044939;28;20082;-64
2024/01/14 09:29:54;;;;;;;6.43;2.10;;;13.10;92.30;;;;;;5012003;28;20072;-64
2024/01/14 09:32:20;;;;;;;6.90;2.42;;;13.10;92.30;;;;;;5012782;28;20045;-63
2024/01/14 09:34:46;;;;;;;8.50;2.25;;;13.20;90.90;;;;;;5043146;28;20411;-64
2024/01/14 09:37:12;;;;;;;7.95;2.15;;;13.10;92.20;;;;;;5023151;28;20057;-64
2024/01/14 09:39:38;;;;;;;6.72;2.30;;;13.20;90.90;;;;;;5011430;28;20045;-64
2024/01/14 09:42:23;;;;;;;9.77;2.53;;;13.10;91.30;;;;;;5012507;28;20038;-63
2024/01/14 09:44:51;;;;;;;9.05;2.15;;;;;;;;;;4992449;28;20049;-64
2024/01/14 09:47:17;;;;;;;6.38;2.35;;;13.30;91.10;;;;;;5043871;28;20365;-64
2024/01/14 09:49:43;;;;;;;8.18;2.35;;;13.30;92.20;;;;;;5006004;28;20180;-64
2024/01/14 09:52:11;;;;;;;8.15;2.25;;;13.40;92.20;;;;;;5013534;28;20050;-63
2024/01/14 09:54:36;;;;;;;6.75;2.35;;;13.00;90.70;;;;;;4998389;28;20045;-66
2024/01/14 09:57:05;;;;;;;8.35;2.45;;;13.40;92.20;;;;;;5028312;28;20053;-64
2024/01/14 09:59:33;;;;;;;7.60;2.30;;;13.30;91.10;;;;;;4994600;28;20104;-63
2024/01/14 10:01:58;;;;;;;5.68;2.00;;;13.20;92.10;;;;;;5011584;28;20049;-63
2024/01/14 10:04:25;;;;;;;7.70;2.45;;;;;;;;;;5011557;28;20476;-63
2024/01/14 10:06:50;;;;;;;7.25;2.22;;;13.30;92.10;;;;;;5007099;28;20056;-67
2024/01/14 10:09:17;;;;;;;9.80;2.13;;;;;;;;;;5026302;28;20083;-63
2024/01/14 10:11:43;;;;;;;6.80;2.10;;;13.30;92.10;;;;;;5011149;28;20033;-64
2024/01/14 10:14:10;;;;;;;7.00;2.20;;;13.10;92.10;;;;;;5010254;28;20045;-64
2024/01/14 10:16:40;;;;;;;6.50;1.90;;;;;;;;;;5011846;28;20125;-64
2024/01/14 10:19:09;;;;;;;8.23;1.90;;;13.20;92.10;;;;;;5043982;28;20084;-64
2024/01/14 10:21:35;;;;;;;7.15;2.40;;;13.50;92.20;;;;;;5042916;28;20038;-64
2024/01/14 10:24:02;;;;;;;7.03;2.40;;;;;;;;;;5025579;28;20046;-65
2024/01/14 10:26:28;;;;;;;7.55;2.08;;;;;;;;;;5011524;28;20045;-64
2024/01/14 10:28:54;;;;;;;6.72;2.38;;;13.40;92.10;;;;;;5044896;28;20100;-64
2024/01/14 10:31:20;;;;;;;5.70;1.88;;;13.50;92.20;;;;;;5031315;28;20108;-64
2024/01/14 10:33:46;;;;;;;8.90;2.30;;;13.30;91.00;;;;;;5013760;28;20496;-64
2024/01/14 10:36:13;;;;;;;9.25;2.10;;;13.50;92.10;;;;;;5012800;28;20095;-65
2024/01/14 10:38:39;;;;;;;7.32;2.17;;;13.40;92.10;;;;;;5014213;28;20050;-65
2024/01/14 10:41:04;;;;;;;5.93;1.70;;;13.40;92.10;;;;;;5015524;28;20049;-63
2024/01/14 10:43:32;;;;;;;6.60;2.10;;;13.40;90.90;;;;;;5015700;28;20073;-64
2024/01/14 10:45:58;;;;;;;7.20;2.17;;;;;;;;;;5047733;28;20060;-64
2024/01/14 10:48:26;;;;;;;6.65;2.38;;;13.50;92.10;;;;;;5043700;28;20545;-64
2024/01/14 10:51:00;;;;;;;6.53;1.98;;;13.50;90.40;;;;;;5012818;28;20053;-63
2024/01/14 10:53:44;;;;;;;8.05;2.20;;;13.40;91.00;;;;;;5013484;28;20050;-64
2024/01/14 10:56:12;;;;;;;5.53;1.88;;;;;;;;;;5027350;28;20049;-64
2024/01/14 10:58:39;;;;;;;5.10;1.88;;;;;;;;;;4995796;28;20050;-64
2024/01/14 11:01:11;;;;;;;6.40;1.88;;;13.70;91.10;;;;;;5029754;28;20045;-64
2024/01/14 11:03:37;;;;;;;7.10;2.10;;;13.50;92.10;;;;;;4997745;28;20050;-64
2024/01/14 11:06:03;;;;;;;5.20;2.00;;;13.60;91.10;;;;;;5013793;28;20046;-65
2024/01/14 11:08:30;;;;;;;6.63;1.70;;;13.60;92.10;;;;;;5046642;28;20424;-64
2024/01/14 11:10:56;;;;;;;5.65;2.00;;;;;;;;;;5028858;28;20038;-64
2024/01/14 11:13:22;;;;;;;5.88;1.63;;;;;;;;;;5012604;28;20061;-67
2024/01/14 11:15:52;;;;;;;5.78;2.05;;;;;;;;;;5014738;28;20042;-65
2024/01/14 11:18:57;;;;;;;6.70;2.05;;;13.30;91.10;;;;;;5015279;28;20400;-65
2024/01/14 11:21:42;;;;;;;6.47;1.80;;;13.60;92.20;;;;;;4969645;28;20474;-64
2024/01/14 11:24:08;;;;;;;7.40;2.10;;;13.70;92.20;;;;;;4972642;28;20090;-65
2024/01/14 11:26:33;;;;;;;7.47;2.13;;;13.50;92.20;;;;;;4989110;28;20077;-64
2024/01/14 11:29:01;;;;;;;6.88;1.90;;;;;;;;;;4957068;28;20047;-64
2024/01/14 11:32:05;;;;;;;6.05;1.92;;;13.60;91.20;;;;;;4972901;28;20076;-65
2024/01/14 11:34:54;;;;;;;6.32;2.00;;;13.50;91.20;;;;;;4988184;28;20051;-65
2024/01/14 11:37:29;;;;;;;7.63;1.60;;;13.50;90.50;;;;;;4989445;28;20445;-64
2024/01/14 11:40:16;;;;;;;6.35;2.03;;;13.70;90.60;;;;;;4988115;28;20054;-64
2024/01/14 11:42:49;;;;;;;6.53;1.83;;;13.40;91.10;;;;;;4985716;28;20547;-64
2024/01/14 11:45:24;;;;;;;7.65;2.00;;;13.50;90.50;;;;;;4972256;28;20055;-64
2024/01/14 11:47:51;;;;;;;7.13;2.20;;;13.60;92.10;;;;;;4954395;28;20125;-64
2024/01/14 11:50:18;;;;;;;5.60;1.80;;;;;;;;;;4982024;28;20069;-68
2024/01/14 11:52:45;;;;;;;6.93;1.80;;;13.70;92.10;;;;;;4978637;28;20417;-64
2024/01/14 11:55:16;;;;;;;5.80;1.77;;;13.50;90.40;;;;;;4988942;28;20398;-65
2024/01/14 11:57:44;;;;;;;6.75;1.80;;;13.50;91.00;;;;;;5003766;28;20058;-64
2024/01/14 12:00:11;;;;;;;4.68;1.80;;;13.50;92.20;;;;;;5012956;28;20137;-64
2024/01/14 12:02:37;;;;;;;8.07;1.90;;;;;;;;;;5013317;28;20082;-64
2024/01/14 12:05:19;;;;;;;6.95;1.85;;;;;;;;;;5011501;28;20057;-64
2024/01/14 12:07:45;;;;;;;6.72;2.35;;;13.90;92.20;;;;;;5013105;28;20057;-64
2024/01/14 12:10:19;;;;;;;7.38;1.92;;;;;;;;;;5013750;28;20048;-64
2024/01/14 12:12:45;;;;;;;5.60;1.95;;;;;;;;;;5012236;28;20050;-64
2024/01/14 12:15:14;;;;;;;4.97;1.63;;;14.00;91.00;;;;;;5013465;28;20401;-64
2024/01/14 12:17:40;;;;;;;5.63;1.70;;;14.00;92.10;;;;;;5012637;28;20112;-64
2024/01/14 12:20:07;;;;;;;4.53;2.00;;;13.90;92.10;;;;;;4996260;28;20050;-65
2024/01/14 12:22:36;;;;;;;12.60;2.70;;;14.00;92.10;;;;;;4979920;28;20053;-66
2024/01/14 12:25:03;;;;;;;23.20;3.53;;;;;;;;;;5025801;28;20053;-65
2024/01/14 12:27:30;;;;;;;48.88;17.92;;;14.10;92.20;;;;;;5013765;28;20054;-66
2024/01/14 12:29:57;;;;;;;65.47;35.83;;;;;;;;;;5044857;28;20052;-66
2024/01/14 12:32:23;;;;;;;73.20;42.45;;;;;;;;;;5012113;28;20062;-65
2024/01/14 12:34:49;;;;;;;67.53;43.30;;;14.50;91.90;;;;;;5015068;28;20458;-65
2024/01/14 12:37:16;;;;;;;60.47;47.33;;;;;;;;;;5011330;28;20061;-65
2024/01/14 12:39:42;;;;;;;54.17;41.95;;;14.90;91.60;;;;;;4996012;28;20045;-65
2024/01/14 12:42:08;;;;;;;56.88;40.85;;;15.20;91.30;;;;;;5012487;28;20061;-66
2024/01/14 12:44:43;;;;;;;50.05;36.72;;;15.70;88.40;;;;;;4994820;28;20057;-68
2024/01/14 12:47:09;;;;;;;44.83;39.97;;;15.90;90.70;;;;;;4976531;28;20054;-65
2024/01/14 12:49:36;;;;;;;61.88;41.35;;;16.30;90.50;;;;;;5004881;28;20428;-66
2024/01/14 12:52:03;;;;;;;48.30;40.05;;;;;;;;;;5012791;28;20121;-66
2024/01/14 12:54:29;;;;;;;48.25;37.72;;;16.70;90.00;;;;;;5016216;28;20337;-64
2024/01/14 12:57:03;;;;;;;44.38;34.90;;;16.80;86.50;;;;;;5026957;28;20057;-64
2024/01/14 12:59:29;;;;;;;45.08;32.63;;;;;;;;;;5012573;28;20050;-65
2024/01/14 13:01:55;;;;;;;40.38;30.27;;;16.90;89.30;;;;;;5012235;28;20069;-65
2024/01/14 13:04:21;;;;;;;41.28;30.50;;;17.00;89.30;;;;;;5028547;28;20045;-65
2024/01/14 13:06:47;;;;;;;36.35;27.27;;;16.90;89.00;;;;;;5043644;28;20045;-65
2024/01/14 13:09:15;;;;;;;32.25;25.52;;;17.10;89.10;;;;;;5013086;28;20050;-65
2024/01/14 13:11:41;;;;;;;31.10;25.30;;;17.10;88.70;;;;;;4995118;28;20045;-65
2024/01/14 13:14:07;;;;;;;38.05;23.48;;;17.20;88.50;;;;;;5010967;28;20467;-65